sensor_id;sensor_type;location;lat;lon;timestamp;pressure;altitude;pressure_sealevel;temperature;humidity
72061;BME280;59925;52.136;5.420;2023-07-20T00:02:11;101592.91;;;16.70;84.08
72061;BME280;59925;52.136;5.420;2023-07-20T00:04:38;101582.94;;;16.66;83.75
72061;BME280;59925;52.136;5.420;2023-07-20T00:07:05;101578.41;;;16.61;83.89
72061;BME280;59925;52.136;5.420;2023-07-20T00:09:31;101587.41;;;16.57;84.07
72061;BME280;59925;52.136;5.420;2023-07-20T00:11:58;101588.50;;;16.55;83.89
72061;BME280;59925;52.136;5.420;2023-07-20T00:14:26;101583.41;;;16.54;84.00
72061;BME280;59925;52.136;5.420;2023-07-20T00:16:55;101582.88;;;16.52;84.24
72061;BME280;59925;52.136;5.420;2023-07-20T00:19:23;101587.56;;;16.46;84.05
72061;BME280;59925;52.136;5.420;2023-07-20T00:21:50;101584.69;;;16.37;84.37
72061;BME280;59925;52.136;5.420;2023-07-20T00:24:17;101582.56;;;16.34;84.59
72061;BME280;59925;52.136;5.420;2023-07-20T00:26:44;101588.56;;;16.31;84.62
72061;BME280;59925;52.136;5.420;2023-07-20T00:29:10;101589.13;;;16.28;84.46
72061;BME280;59925;52.136;5.420;2023-07-20T00:31:37;101594.03;;;16.26;84.57
72061;BME280;59925;52.136;5.420;2023-07-20T00:34:04;101593.00;;;16.22;84.76
72061;BME280;59925;52.136;5.420;2023-07-20T00:36:31;101591.09;;;16.22;84.91
72061;BME280;59925;52.136;5.420;2023-07-20T00:38:58;101586.50;;;16.23;85.05
72061;BME280;59925;52.136;5.420;2023-07-20T00:41:24;101584.59;;;16.23;84.85
72061;BME280;59925;52.136;5.420;2023-07-20T00:43:55;101580.25;;;16.22;84.42
72061;BME280;59925;52.136;5.420;2023-07-20T00:46:23;101591.38;;;16.21;84.47
72061;BME280;59925;52.136;5.420;2023-07-20T00:48:52;101581.22;;;16.13;84.58
72061;BME280;59925;52.136;5.420;2023-07-20T00:51:21;101584.50;;;16.09;84.63
72061;BME280;59925;52.136;5.420;2023-07-20T00:53:48;101586.44;;;16.04;84.66
72061;BME280;59925;52.136;5.420;2023-07-20T00:56:15;101589.50;;;15.97;84.75
72061;BME280;59925;52.136;5.420;2023-07-20T00:58:42;101583.13;;;15.88;84.96
72061;BME280;59925;52.136;5.420;2023-07-20T01:01:09;101583.13;;;15.83;85.11
72061;BME280;59925;52.136;5.420;2023-07-20T01:03:36;101586.19;;;15.76;85.36
72061;BME280;59925;52.136;5.420;2023-07-20T01:11:33;101589.56;;;15.62;85.30
72061;BME280;59925;52.136;5.420;2023-07-20T01:14:02;101594.44;;;15.60;85.38
72061;BME280;59925;52.136;5.420;2023-07-20T01:16:29;101593.69;;;15.55;85.38
72061;BME280;59925;52.136;5.420;2023-07-20T01:18:55;101596.41;;;15.50;85.48
72061;BME280;59925;52.136;5.420;2023-07-20T01:21:34;101591.59;;;15.46;85.36
72061;BME280;59925;52.136;5.420;2023-07-20T01:29:32;101597.38;;;15.35;85.33
72061;BME280;59925;52.136;5.420;2023-07-20T01:32:04;101593.59;;;15.30;85.28
72061;BME280;59925;52.136;5.420;2023-07-20T01:34:34;101599.59;;;15.27;85.51
72061;BME280;59925;52.136;5.420;2023-07-20T01:37:03;101598.84;;;15.22;85.71
72061;BME280;59925;52.136;5.420;2023-07-20T01:39:30;101594.53;;;15.15;85.93
72061;BME280;59925;52.136;5.420;2023-07-20T01:41:57;101588.63;;;15.13;85.63
72061;BME280;59925;52.136;5.420;2023-07-20T01:44:24;101590.53;;;15.13;85.79
72061;BME280;59925;52.136;5.420;2023-07-20T01:46:51;101590.56;;;15.08;85.98
72061;BME280;59925;52.136;5.420;2023-07-20T01:49:17;101591.94;;;15.05;85.82
72061;BME280;59925;52.136;5.420;2023-07-20T01:51:44;101589.25;;;15.00;85.69
72061;BME280;59925;52.136;5.420;2023-07-20T01:54:10;101597.13;;;14.96;85.87
72061;BME280;59925;52.136;5.420;2023-07-20T01:56:37;101597.97;;;14.92;85.87
72061;BME280;59925;52.136;5.420;2023-07-20T01:59:04;101603.91;;;14.89;86.08
72061;BME280;59925;52.136;5.420;2023-07-20T02:01:30;101611.78;;;14.85;85.98
72061;BME280;59925;52.136;5.420;2023-07-20T02:03:57;101611.78;;;14.80;86.09
72061;BME280;59925;52.136;5.420;2023-07-20T02:06:23;101611.25;;;14.78;86.27
72061;BME280;59925;52.136;5.420;2023-07-20T02:08:51;101609.94;;;14.75;86.43
72061;BME280;59925;52.136;5.420;2023-07-20T02:11:17;101603.19;;;14.73;86.03
72061;BME280;59925;52.136;5.420;2023-07-20T02:13:44;101603.47;;;14.71;85.74
72061;BME280;59925;52.136;5.420;2023-07-20T02:16:10;101605.63;;;14.69;86.24
72061;BME280;59925;52.136;5.420;2023-07-20T02:18:37;101608.06;;;14.70;86.58
72061;BME280;59925;52.136;5.420;2023-07-20T02:21:04;101604.28;;;14.71;86.62
72061;BME280;59925;52.136;5.420;2023-07-20T02:23:31;101610.47;;;14.72;86.96
72061;BME280;59925;52.136;5.420;2023-07-20T02:25:58;101607.78;;;14.72;86.88
72061;BME280;59925;52.136;5.420;2023-07-20T02:28:24;101608.59;;;14.73;87.11
72061;BME280;59925;52.136;5.420;2023-07-20T02:30:51;101603.47;;;14.71;86.86
72061;BME280;59925;52.136;5.420;2023-07-20T02:33:17;101599.97;;;14.65;87.08
72061;BME280;59925;52.136;5.420;2023-07-20T02:35:44;101612.91;;;14.63;87.21
72061;BME280;59925;52.136;5.420;2023-07-20T02:38:10;101605.66;;;14.59;86.76
72061;BME280;59925;52.136;5.420;2023-07-20T02:40:37;101611.09;;;14.53;87.03
72061;BME280;59925;52.136;5.420;2023-07-20T02:43:03;101607.34;;;14.49;86.90
72061;BME280;59925;52.136;5.420;2023-07-20T02:45:30;101606.25;;;14.45;86.56
72061;BME280;59925;52.136;5.420;2023-07-20T02:47:56;101601.69;;;14.46;86.29
72061;BME280;59925;52.136;5.420;2023-07-20T02:50:23;101610.88;;;14.45;86.10
72061;BME280;59925;52.136;5.420;2023-07-20T02:52:50;101603.84;;;14.44;85.78
72061;BME280;59925;52.136;5.420;2023-07-20T02:55:17;101607.91;;;14.41;85.90
72061;BME280;59925;52.136;5.420;2023-07-20T02:57:43;101604.94;;;14.37;85.90
72061;BME280;59925;52.136;5.420;2023-07-20T03:00:10;101612.53;;;14.30;86.18
72061;BME280;59925;52.136;5.420;2023-07-20T03:02:37;101618.47;;;14.27;86.14
72061;BME280;59925;52.136;5.420;2023-07-20T03:05:05;101627.94;;;14.24;85.85
72061;BME280;59925;52.136;5.420;2023-07-20T03:07:33;101625.25;;;14.19;85.86
72061;BME280;59925;52.136;5.420;2023-07-20T03:10:00;101633.38;;;14.14;85.93
72061;BME280;59925;52.136;5.420;2023-07-20T03:12:26;101636.84;;;14.09;86.24
72061;BME280;59925;52.136;5.420;2023-07-20T03:14:53;101632.28;;;14.05;86.38
72061;BME280;59925;52.136;5.420;2023-07-20T03:17:20;101647.91;;;14.03;86.42
72061;BME280;59925;52.136;5.420;2023-07-20T03:19:47;101644.97;;;14.04;86.35
72061;BME280;59925;52.136;5.420;2023-07-20T03:22:13;101649.03;;;14.02;86.71
72061;BME280;59925;52.136;5.420;2023-07-20T03:24:40;101649.56;;;13.99;86.73
72061;BME280;59925;52.136;5.420;2023-07-20T03:27:06;101651.19;;;14.00;86.61
72061;BME280;59925;52.136;5.420;2023-07-20T03:29:33;101646.88;;;13.93;86.97
72061;BME280;59925;52.136;5.420;2023-07-20T03:32:00;101651.47;;;13.88;87.03
72061;BME280;59925;52.136;5.420;2023-07-20T03:34:26;101645.00;;;13.84;87.05
72061;BME280;59925;52.136;5.420;2023-07-20T03:36:53;101646.63;;;13.79;87.19
72061;BME280;59925;52.136;5.420;2023-07-20T03:39:19;101641.50;;;13.78;86.93
72061;BME280;59925;52.136;5.420;2023-07-20T03:41:46;101644.47;;;13.76;86.73
72061;BME280;59925;52.136;5.420;2023-07-20T03:44:12;101640.97;;;13.71;86.71
72061;BME280;59925;52.136;5.420;2023-07-20T03:46:39;101645.03;;;13.68;86.75
72061;BME280;59925;52.136;5.420;2023-07-20T03:49:05;101653.63;;;13.60;86.99
72061;BME280;59925;52.136;5.420;2023-07-20T03:51:32;101646.66;;;13.54;87.06
72061;BME280;59925;52.136;5.420;2023-07-20T03:53:59;101645.03;;;13.53;87.24
72061;BME280;59925;52.136;5.420;2023-07-20T03:56:25;101652.84;;;13.49;87.45
72061;BME280;59925;52.136;5.420;2023-07-20T03:58:52;101650.13;;;13.44;87.42
72061;BME280;59925;52.136;5.420;2023-07-20T04:01:19;101646.34;;;13.40;87.66
72061;BME280;59925;52.136;5.420;2023-07-20T04:03:45;101642.34;;;13.42;87.78
72061;BME280;59925;52.136;5.420;2023-07-20T04:06:15;101650.66;;;13.41;87.85
72061;BME280;59925;52.136;5.420;2023-07-20T04:08:44;101656.84;;;13.36;87.54
72061;BME280;59925;52.136;5.420;2023-07-20T04:11:10;101658.44;;;13.32;87.82
72061;BME280;59925;52.136;5.420;2023-07-20T04:13:37;101667.88;;;13.34;87.62
72061;BME280;59925;52.136;5.420;2023-07-20T04:16:04;101661.44;;;13.36;88.10
72061;BME280;59925;52.136;5.420;2023-07-20T04:18:30;101664.63;;;13.38;87.94
72061;BME280;59925;52.136;5.420;2023-07-20T04:20:57;101671.97;;;13.42;88.27
72061;BME280;59925;52.136;5.420;2023-07-20T04:23:23;101670.09;;;13.48;88.67
72061;BME280;59925;52.136;5.420;2023-07-20T04:25:51;101665.50;;;13.54;89.03
72061;BME280;59925;52.136;5.420;2023-07-20T04:28:18;101671.94;;;13.58;88.83
72061;BME280;59925;52.136;5.420;2023-07-20T04:30:44;101671.69;;;13.64;88.56
72061;BME280;59925;52.136;5.420;2023-07-20T04:33:11;101675.47;;;13.69;88.49
72061;BME280;59925;52.136;5.420;2023-07-20T04:35:52;101674.66;;;13.68;88.39
72061;BME280;59925;52.136;5.420;2023-07-20T04:38:20;101670.59;;;13.66;88.51
72061;BME280;59925;52.136;5.420;2023-07-20T04:40:48;101678.69;;;13.66;88.44
72061;BME280;59925;52.136;5.420;2023-07-20T04:43:16;101675.19;;;13.60;88.19
72061;BME280;59925;52.136;5.420;2023-07-20T04:45:43;101689.19;;;13.57;88.26
72061;BME280;59925;52.136;5.420;2023-07-20T04:48:12;101687.31;;;13.52;87.89
72061;BME280;59925;52.136;5.420;2023-07-20T04:50:43;101691.34;;;13.44;87.94
72061;BME280;59925;52.136;5.420;2023-07-20T04:53:12;101687.56;;;13.45;87.90
72061;BME280;59925;52.136;5.420;2023-07-20T04:55:39;101686.22;;;13.53;88.04
72061;BME280;59925;52.136;5.420;2023-07-20T04:58:06;101687.84;;;13.54;87.70
72061;BME280;59925;52.136;5.420;2023-07-20T05:00:34;101687.06;;;13.54;87.73
72061;BME280;59925;52.136;5.420;2023-07-20T05:03:01;101688.94;;;13.58;87.40
72061;BME280;59925;52.136;5.420;2023-07-20T05:05:28;101682.75;;;13.63;87.29
72061;BME280;59925;52.136;5.420;2023-07-20T05:07:54;101691.63;;;13.63;87.22
72061;BME280;59925;52.136;5.420;2023-07-20T05:10:21;101685.69;;;13.67;87.47
72061;BME280;59925;52.136;5.420;2023-07-20T05:12:47;101683.25;;;13.70;87.44
72061;BME280;59925;52.136;5.420;2023-07-20T05:15:14;101684.09;;;13.76;87.49
72061;BME280;59925;52.136;5.420;2023-07-20T05:17:41;101694.03;;;13.86;88.03
72061;BME280;59925;52.136;5.420;2023-07-20T05:20:08;101693.19;;;14.21;88.11
72061;BME280;59925;52.136;5.420;2023-07-20T05:22:38;101689.41;;;14.28;87.46
72061;BME280;59925;52.136;5.420;2023-07-20T05:25:10;101693.16;;;14.37;87.34
72061;BME280;59925;52.136;5.420;2023-07-20T05:27:38;101690.44;;;14.47;87.49
72061;BME280;59925;52.136;5.420;2023-07-20T05:30:05;101694.97;;;14.67;87.34
72061;BME280;59925;52.136;5.420;2023-07-20T05:32:33;101686.88;;;14.73;86.82
72061;BME280;59925;52.136;5.420;2023-07-20T05:35:00;101693.63;;;14.60;87.18
72061;BME280;59925;52.136;5.420;2023-07-20T05:37:27;101687.97;;;14.56;87.67
72061;BME280;59925;52.136;5.420;2023-07-20T05:39:53;101695.16;;;14.86;88.15
72061;BME280;59925;52.136;5.420;2023-07-20T05:42:20;101698.94;;;16.05;89.24
72061;BME280;59925;52.136;5.420;2023-07-20T05:44:46;101686.69;;;18.51;82.75
72061;BME280;59925;52.136;5.420;2023-07-20T05:47:19;101690.88;;;20.21;74.84
72061;BME280;59925;52.136;5.420;2023-07-20T05:49:45;101688.31;;;21.18;69.78
72061;BME280;59925;52.136;5.420;2023-07-20T05:52:13;101683.53;;;21.98;65.90
72061;BME280;59925;52.136;5.420;2023-07-20T05:54:39;101683.41;;;22.63;63.00
72061;BME280;59925;52.136;5.420;2023-07-20T05:57:06;101682.22;;;23.15;61.33
72061;BME280;59925;52.136;5.420;2023-07-20T05:59:32;101684.03;;;23.78;60.45
72061;BME280;59925;52.136;5.420;2023-07-20T06:01:59;101689.56;;;24.03;58.29
72061;BME280;59925;52.136;5.420;2023-07-20T06:04:25;101682.16;;;23.03;59.20
72061;BME280;59925;52.136;5.420;2023-07-20T06:06:52;101691.72;;;22.75;60.17
72061;BME280;59925;52.136;5.420;2023-07-20T06:09:18;101691.38;;;23.19;60.06
72061;BME280;59925;52.136;5.420;2023-07-20T06:11:45;101696.94;;;23.78;58.45
72061;BME280;59925;52.136;5.420;2023-07-20T06:14:11;101691.44;;;23.10;57.75
72061;BME280;59925;52.136;5.420;2023-07-20T06:16:38;101701.28;;;22.60;58.53
72061;BME280;59925;52.136;5.420;2023-07-20T06:19:05;101703.91;;;22.48;58.42
72061;BME280;59925;52.136;5.420;2023-07-20T06:21:32;101704.34;;;21.72;60.17
72061;BME280;59925;52.136;5.420;2023-07-20T06:23:58;101697.47;;;21.31;62.13
72061;BME280;59925;52.136;5.420;2023-07-20T06:26:25;101699.09;;;22.45;62.68
72061;BME280;59925;52.136;5.420;2023-07-20T06:28:51;101693.28;;;23.40;58.40
72061;BME280;59925;52.136;5.420;2023-07-20T06:31:18;101701.00;;;23.17;57.39
72061;BME280;59925;52.136;5.420;2023-07-20T06:33:45;101701.88;;;22.66;57.96
72061;BME280;59925;52.136;5.420;2023-07-20T06:36:11;101704.34;;;21.81;58.09
72061;BME280;59925;52.136;5.420;2023-07-20T06:38:38;101698.09;;;20.84;60.71
72061;BME280;59925;52.136;5.420;2023-07-20T06:41:04;101706.38;;;20.12;63.54
72061;BME280;59925;52.136;5.420;2023-07-20T06:43:34;101710.19;;;20.11;64.39
72061;BME280;59925;52.136;5.420;2023-07-20T06:46:04;101712.28;;;19.83;64.36
72061;BME280;59925;52.136;5.420;2023-07-20T06:48:30;101718.28;;;19.48;64.99
72061;BME280;59925;52.136;5.420;2023-07-20T06:50:57;101718.97;;;19.31;64.23
72061;BME280;59925;52.136;5.420;2023-07-20T06:53:23;101722.19;;;18.96;65.32
72061;BME280;59925;52.136;5.420;2023-07-20T06:55:50;101722.56;;;18.90;66.87
72061;BME280;59925;52.136;5.420;2023-07-20T06:58:17;101728.31;;;18.74;67.50
72061;BME280;59925;52.136;5.420;2023-07-20T07:00:44;101720.06;;;18.65;68.25
72061;BME280;59925;52.136;5.420;2023-07-20T07:03:11;101725.09;;;18.58;68.76
72061;BME280;59925;52.136;5.420;2023-07-20T07:05:37;101723.47;;;18.43;68.82
72061;BME280;59925;52.136;5.420;2023-07-20T07:08:05;101723.19;;;18.45;69.53
72061;BME280;59925;52.136;5.420;2023-07-20T07:10:32;101724.59;;;18.28;68.69
72061;BME280;59925;52.136;5.420;2023-07-20T07:12:59;101722.84;;;18.18;69.70
72061;BME280;59925;52.136;5.420;2023-07-20T07:15:26;101727.09;;;18.25;70.65
72061;BME280;59925;52.136;5.420;2023-07-20T07:17:54;101724.00;;;18.31;70.03
72061;BME280;59925;52.136;5.420;2023-07-20T07:20:21;101725.50;;;18.37;70.80
72061;BME280;59925;52.136;5.420;2023-07-20T07:22:50;101719.06;;;18.47;70.11
72061;BME280;59925;52.136;5.420;2023-07-20T07:25:21;101721.03;;;18.83;70.60
72061;BME280;59925;52.136;5.420;2023-07-20T07:27:50;101727.38;;;19.07;68.71
72061;BME280;59925;52.136;5.420;2023-07-20T07:30:17;101726.56;;;18.92;68.13
72061;BME280;59925;52.136;5.420;2023-07-20T07:32:44;101719.38;;;18.60;67.98
72061;BME280;59925;52.136;5.420;2023-07-20T07:35:10;101729.34;;;18.50;68.67
72061;BME280;59925;52.136;5.420;2023-07-20T07:37:38;101730.53;;;18.44;69.29
72061;BME280;59925;52.136;5.420;2023-07-20T07:40:24;101725.88;;;18.31;69.28
72061;BME280;59925;52.136;5.420;2023-07-20T07:42:51;101734.53;;;18.33;69.32
72061;BME280;59925;52.136;5.420;2023-07-20T07:45:17;101733.13;;;18.63;68.92
72061;BME280;59925;52.136;5.420;2023-07-20T07:47:44;101736.56;;;18.83;69.07
72061;BME280;59925;52.136;5.420;2023-07-20T07:50:10;101734.00;;;19.14;68.14
72061;BME280;59925;52.136;5.420;2023-07-20T07:52:37;101734.84;;;19.38;67.78
72061;BME280;59925;52.136;5.420;2023-07-20T07:55:04;101737.63;;;19.69;66.49
72061;BME280;59925;52.136;5.420;2023-07-20T07:57:31;101729.34;;;19.97;66.76
72061;BME280;59925;52.136;5.420;2023-07-20T07:59:57;101736.97;;;20.18;65.03
72061;BME280;59925;52.136;5.420;2023-07-20T08:02:24;101732.41;;;20.36;64.49
72061;BME280;59925;52.136;5.420;2023-07-20T08:04:51;101728.94;;;20.53;64.19
72061;BME280;59925;52.136;5.420;2023-07-20T08:07:19;101734.72;;;20.60;62.24
72061;BME280;59925;52.136;5.420;2023-07-20T08:09:45;101727.06;;;20.62;61.77
72061;BME280;59925;52.136;5.420;2023-07-20T08:12:12;101725.13;;;20.63;59.12
72061;BME280;59925;52.136;5.420;2023-07-20T08:14:39;101727.44;;;20.78;60.85
72061;BME280;59925;52.136;5.420;2023-07-20T08:17:06;101718.81;;;21.03;61.63
72061;BME280;59925;52.136;5.420;2023-07-20T08:19:33;101723.13;;;21.12;60.26
72061;BME280;59925;52.136;5.420;2023-07-20T08:22:00;101716.56;;;21.13;58.93
72061;BME280;59925;52.136;5.420;2023-07-20T08:24:26;101723.78;;;21.18;57.75
72061;BME280;59925;52.136;5.420;2023-07-20T08:26:53;101728.94;;;21.20;56.98
72061;BME280;59925;52.136;5.420;2023-07-20T08:29:19;101725.72;;;21.18;55.95
72061;BME280;59925;52.136;5.420;2023-07-20T08:31:46;101722.66;;;21.19;53.38
72061;BME280;59925;52.136;5.420;2023-07-20T08:34:13;101730.84;;;21.28;55.46
72061;BME280;59925;52.136;5.420;2023-07-20T08:36:54;101726.69;;;21.13;53.38
72061;BME280;59925;52.136;5.420;2023-07-20T08:39:23;101728.44;;;21.35;53.04
72061;BME280;59925;52.136;5.420;2023-07-20T08:41:50;101737.88;;;21.11;51.62
72061;BME280;59925;52.136;5.420;2023-07-20T08:44:20;101744.72;;;20.74;52.78
72061;BME280;59925;52.136;5.420;2023-07-20T08:46:47;101738.16;;;20.34;51.85
72061;BME280;59925;52.136;5.420;2023-07-20T08:49:16;101737.56;;;20.38;53.92
72061;BME280;59925;52.136;5.420;2023-07-20T08:51:43;101735.56;;;20.70;54.20
72061;BME280;59925;52.136;5.420;2023-07-20T08:54:12;101725.06;;;21.21;54.30
72061;BME280;59925;52.136;5.420;2023-07-20T08:56:40;101735.00;;;21.52;53.05
72061;BME280;59925;52.136;5.420;2023-07-20T08:59:08;101729.22;;;21.71;51.00
72061;BME280;59925;52.136;5.420;2023-07-20T09:01:36;101736.84;;;22.04;52.59
72061;BME280;59925;52.136;5.420;2023-07-20T09:04:03;101732.44;;;22.29;50.60
72061;BME280;59925;52.136;5.420;2023-07-20T09:06:30;101732.75;;;22.67;51.73
72061;BME280;59925;52.136;5.420;2023-07-20T09:08:57;101736.31;;;22.88;53.00
72061;BME280;59925;52.136;5.420;2023-07-20T09:11:24;101729.97;;;23.18;50.69
72061;BME280;59925;52.136;5.420;2023-07-20T09:14:07;101728.19;;;23.43;50.57
72061;BME280;59925;52.136;5.420;2023-07-20T09:16:48;101721.13;;;23.21;47.90
72061;BME280;59925;52.136;5.420;2023-07-20T09:19:16;101716.66;;;22.65;47.62
72061;BME280;59925;52.136;5.420;2023-07-20T09:21:47;101729.41;;;22.22;48.25
72061;BME280;59925;52.136;5.420;2023-07-20T09:24:14;101734.84;;;21.83;47.81
72061;BME280;59925;52.136;5.420;2023-07-20T09:26:44;101728.25;;;21.49;48.06
72061;BME280;59925;52.136;5.420;2023-07-20T09:29:11;101731.97;;;21.36;49.00
72061;BME280;59925;52.136;5.420;2023-07-20T09:31:38;101729.38;;;21.31;50.22
72061;BME280;59925;52.136;5.420;2023-07-20T09:34:07;101733.47;;;22.07;48.70
72061;BME280;59925;52.136;5.420;2023-07-20T09:36:35;101723.19;;;22.52;45.11
72061;BME280;59925;52.136;5.420;2023-07-20T09:39:05;101727.53;;;23.04;44.39
72061;BME280;59925;52.136;5.420;2023-07-20T09:41:41;101722.84;;;23.47;42.62
72061;BME280;59925;52.136;5.420;2023-07-20T09:44:11;101715.34;;;23.56;42.71
72061;BME280;59925;52.136;5.420;2023-07-20T09:46:42;101717.41;;;23.59;43.16
72061;BME280;59925;52.136;5.420;2023-07-20T09:49:11;101728.53;;;23.75;42.36
72061;BME280;59925;52.136;5.420;2023-07-20T09:51:41;101725.63;;;24.17;45.54
72061;BME280;59925;52.136;5.420;2023-07-20T09:54:08;101720.16;;;24.67;44.86
72061;BME280;59925;52.136;5.420;2023-07-20T09:56:36;101719.25;;;24.75;44.31
72061;BME280;59925;52.136;5.420;2023-07-20T09:59:04;101716.94;;;24.90;44.10
72061;BME280;59925;52.136;5.420;2023-07-20T10:01:32;101714.94;;;25.03;44.40
72061;BME280;59925;52.136;5.420;2023-07-20T10:03:59;101712.28;;;25.47;43.91
72061;BME280;59925;52.136;5.420;2023-07-20T10:06:29;101712.06;;;25.68;42.70
72061;BME280;59925;52.136;5.420;2023-07-20T10:09:03;101699.66;;;25.75;42.66
72061;BME280;59925;52.136;5.420;2023-07-20T10:11:32;101708.78;;;25.63;39.37
72061;BME280;59925;52.136;5.420;2023-07-20T10:14:03;101718.91;;;24.77;41.46
72061;BME280;59925;52.136;5.420;2023-07-20T10:16:36;101710.09;;;23.97;41.57
72061;BME280;59925;52.136;5.420;2023-07-20T10:19:11;101712.34;;;23.49;42.50
72061;BME280;59925;52.136;5.420;2023-07-20T10:21:47;101710.75;;;23.05;43.84
72061;BME280;59925;52.136;5.420;2023-07-20T10:24:22;101705.28;;;23.48;44.96
72061;BME280;59925;52.136;5.420;2023-07-20T10:26:50;101708.41;;;24.29;43.71
72061;BME280;59925;52.136;5.420;2023-07-20T10:29:17;101700.97;;;24.79;41.79
72061;BME280;59925;52.136;5.420;2023-07-20T10:31:44;101703.59;;;25.17;41.51
72061;BME280;59925;52.136;5.420;2023-07-20T10:34:11;101701.09;;;25.12;41.61
72061;BME280;59925;52.136;5.420;2023-07-20T10:36:45;101698.38;;;24.46;40.85
72061;BME280;59925;52.136;5.420;2023-07-20T10:39:25;101698.03;;;24.35;40.06
72061;BME280;59925;52.136;5.420;2023-07-20T10:42:06;101702.94;;;24.05;41.21
72061;BME280;59925;52.136;5.420;2023-07-20T10:44:36;101698.09;;;23.89;40.63
72061;BME280;59925;52.136;5.420;2023-07-20T10:47:08;101700.53;;;23.69;41.15
72061;BME280;59925;52.136;5.420;2023-07-20T10:50:00;101697.47;;;24.29;40.69
72061;BME280;59925;52.136;5.420;2023-07-20T10:52:36;101688.53;;;24.57;39.91
72061;BME280;59925;52.136;5.420;2023-07-20T10:55:19;101691.03;;;24.75;38.51
72061;BME280;59925;52.136;5.420;2023-07-20T10:58:06;101681.41;;;24.81;38.23
72061;BME280;59925;52.136;5.420;2023-07-20T11:00:33;101688.72;;;25.46;37.48
72061;BME280;59925;52.136;5.420;2023-07-20T11:02:59;101683.69;;;25.48;39.06
72061;BME280;59925;52.136;5.420;2023-07-20T11:05:37;101674.88;;;26.03;38.85
72061;BME280;59925;52.136;5.420;2023-07-20T11:08:13;101676.03;;;26.18;37.14
72061;BME280;59925;52.136;5.420;2023-07-20T11:11:27;101679.47;;;26.31;36.75
72061;BME280;59925;52.136;5.420;2023-07-20T11:14:01;101676.47;;;26.56;36.25
72061;BME280;59925;52.136;5.420;2023-07-20T11:19:03;101666.94;;;26.69;37.08
72061;BME280;59925;52.136;5.420;2023-07-20T11:21:40;101659.97;;;26.56;35.82
72061;BME280;59925;52.136;5.420;2023-07-20T11:24:26;101664.91;;;26.66;38.61
72061;BME280;59925;52.136;5.420;2023-07-20T11:26:53;101659.97;;;26.56;37.32
72061;BME280;59925;52.136;5.420;2023-07-20T11:29:22;101660.88;;;26.44;35.06
72061;BME280;59925;52.136;5.420;2023-07-20T11:31:59;101663.25;;;26.26;35.32
72061;BME280;59925;52.136;5.420;2023-07-20T11:34:26;101659.25;;;25.91;36.20
72061;BME280;59925;52.136;5.420;2023-07-20T11:36:53;101660.50;;;25.78;34.70
72061;BME280;59925;52.136;5.420;2023-07-20T11:39:23;101653.50;;;25.48;35.10
72061;BME280;59925;52.136;5.420;2023-07-20T11:41:53;101654.13;;;25.90;36.10
72061;BME280;59925;52.136;5.420;2023-07-20T11:44:22;101649.44;;;26.06;35.00
72061;BME280;59925;52.136;5.420;2023-07-20T11:47:07;101650.00;;;26.12;35.30
72061;BME280;59925;52.136;5.420;2023-07-20T11:49:43;101653.09;;;26.46;34.01
72061;BME280;59925;52.136;5.420;2023-07-20T11:52:12;101649.09;;;26.79;34.54
72061;BME280;59925;52.136;5.420;2023-07-20T11:54:40;101649.78;;;26.76;34.00
72061;BME280;59925;52.136;5.420;2023-07-20T11:57:20;101640.56;;;27.27;33.91
72061;BME280;59925;52.136;5.420;2023-07-20T11:59:57;101638.53;;;27.01;34.53
72061;BME280;59925;52.136;5.420;2023-07-20T12:02:26;101639.63;;;26.96;37.26
72061;BME280;59925;52.136;5.420;2023-07-20T12:04:54;101638.06;;;27.42;34.48
72061;BME280;59925;52.136;5.420;2023-07-20T12:07:21;101637.97;;;27.34;34.71
72061;BME280;59925;52.136;5.420;2023-07-20T12:10:07;101634.72;;;27.09;33.75
72061;BME280;59925;52.136;5.420;2023-07-20T12:12:37;101634.53;;;27.41;34.56
72061;BME280;59925;52.136;5.420;2023-07-20T12:17:46;101629.22;;;28.25;34.30
72061;BME280;59925;52.136;5.420;2023-07-20T12:20:13;101621.34;;;28.58;34.32
72061;BME280;59925;52.136;5.420;2023-07-20T12:22:50;101623.59;;;28.79;31.01
72061;BME280;59925;52.136;5.420;2023-07-20T12:25:17;101628.56;;;28.09;32.78
72061;BME280;59925;52.136;5.420;2023-07-20T12:27:47;101632.69;;;27.45;33.88
72061;BME280;59925;52.136;5.420;2023-07-20T12:30:14;101627.97;;;26.47;34.65
72061;BME280;59925;52.136;5.420;2023-07-20T12:32:41;101626.03;;;25.96;36.36
72061;BME280;59925;52.136;5.420;2023-07-20T12:35:08;101624.72;;;25.74;37.14
72061;BME280;59925;52.136;5.420;2023-07-20T12:37:35;101626.06;;;25.48;36.87
72061;BME280;59925;52.136;5.420;2023-07-20T12:40:01;101626.75;;;25.45;37.64
72061;BME280;59925;52.136;5.420;2023-07-20T12:42:28;101613.00;;;26.25;36.22
72061;BME280;59925;52.136;5.420;2023-07-20T12:44:55;101623.94;;;26.41;37.24
72061;BME280;59925;52.136;5.420;2023-07-20T12:47:21;101612.22;;;26.44;37.97
72061;BME280;59925;52.136;5.420;2023-07-20T12:49:49;101613.13;;;26.33;35.46
72061;BME280;59925;52.136;5.420;2023-07-20T12:52:15;101617.84;;;25.80;35.76
72061;BME280;59925;52.136;5.420;2023-07-20T12:54:42;101613.03;;;25.61;37.01
72061;BME280;59925;52.136;5.420;2023-07-20T12:57:08;101610.13;;;25.54;38.82
72061;BME280;59925;52.136;5.420;2023-07-20T12:59:38;101613.16;;;25.36;36.95
72061;BME280;59925;52.136;5.420;2023-07-20T13:02:05;101622.91;;;25.34;39.97
72061;BME280;59925;52.136;5.420;2023-07-20T13:04:31;101611.31;;;25.40;39.03
72061;BME280;59925;52.136;5.420;2023-07-20T13:06:58;101617.72;;;25.45;39.03
72061;BME280;59925;52.136;5.420;2023-07-20T13:09:26;101608.25;;;25.42;39.02
72061;BME280;59925;52.136;5.420;2023-07-20T13:11:52;101615.69;;;25.42;37.58
72061;BME280;59925;52.136;5.420;2023-07-20T13:14:19;101613.72;;;25.42;37.82